sensor_id;sensor_type;location;lat;lon;timestamp;pressure;altitude;pressure_sealevel;temperature;humidity
42433;BME280;28071;48.232;20.668;2023-06-22T00:01:57;99768.56;;;19.06;100.00
42433;BME280;28071;48.232;20.668;2023-06-22T00:06:57;99752.34;;;18.96;100.00
42433;BME280;28071;48.232;20.668;2023-06-22T00:11:58;99762.38;;;19.05;100.00
42433;BME280;28071;48.232;20.668;2023-06-22T00:16:58;99758.88;;;19.05;100.00
42433;BME280;28071;48.232;20.668;2023-06-22T00:21:59;99748.31;;;19.03;100.00
42433;BME280;28071;48.232;20.668;2023-06-22T00:27:00;99745.66;;;19.13;100.00
42433;BME280;28071;48.232;20.668;2023-06-22T00:32:00;99734.03;;;19.03;100.00
42433;BME280;28071;48.232;20.668;2023-06-22T00:37:01;99720.84;;;19.06;100.00
42433;BME280;28071;48.232;20.668;2023-06-22T00:42:01;99719.22;;;19.05;100.00
42433;BME280;28071;48.232;20.668;2023-06-22T00:47:03;99708.72;;;18.99;100.00
42433;BME280;28071;48.232;20.668;2023-06-22T00:52:03;99718.97;;;18.97;100.00
42433;BME280;28071;48.232;20.668;2023-06-22T00:57:04;99712.19;;;18.94;100.00
42433;BME280;28071;48.232;20.668;2023-06-22T01:02:05;99720.56;;;19.08;100.00
42433;BME280;28071;48.232;20.668;2023-06-22T01:12:15;99731.63;;;19.01;100.00
42433;BME280;28071;48.232;20.668;2023-06-22T01:17:19;99718.69;;;18.93;100.00
42433;BME280;28071;48.232;20.668;2023-06-22T01:22:21;99717.88;;;18.98;100.00
42433;BME280;28071;48.232;20.668;2023-06-22T01:27:36;99724.88;;;19.04;100.00
42433;BME280;28071;48.232;20.668;2023-06-22T01:32:46;99726.50;;;19.00;100.00
42433;BME280;28071;48.232;20.668;2023-06-22T01:37:48;99718.41;;;18.90;100.00
42433;BME280;28071;48.232;20.668;2023-06-22T01:42:50;99713.53;;;18.87;100.00
42433;BME280;28071;48.232;20.668;2023-06-22T01:47:51;99729.44;;;18.78;100.00
42433;BME280;28071;48.232;20.668;2023-06-22T01:52:51;99738.59;;;18.77;100.00
42433;BME280;28071;48.232;20.668;2023-06-22T01:57:52;99722.44;;;18.67;100.00
42433;BME280;28071;48.232;20.668;2023-06-22T02:02:58;99707.03;;;18.62;100.00
42433;BME280;28071;48.232;20.668;2023-06-22T02:08:07;99695.94;;;18.48;100.00
42433;BME280;28071;48.232;20.668;2023-06-22T02:13:10;99719.34;;;18.43;100.00
42433;BME280;28071;48.232;20.668;2023-06-22T02:18:11;99719.88;;;18.29;100.00
42433;BME280;28071;48.232;20.668;2023-06-22T02:23:12;99748.97;;;18.38;100.00
42433;BME280;28071;48.232;20.668;2023-06-22T02:28:12;99750.25;;;18.25;100.00
42433;BME280;28071;48.232;20.668;2023-06-22T02:33:13;99732.97;;;18.11;100.00
42433;BME280;28071;48.232;20.668;2023-06-22T02:38:13;99751.50;;;18.02;100.00
42433;BME280;28071;48.232;20.668;2023-06-22T02:43:14;99760.34;;;17.97;100.00
42433;BME280;28071;48.232;20.668;2023-06-22T02:48:15;99766.53;;;17.98;100.00
42433;BME280;28071;48.232;20.668;2023-06-22T02:53:15;99777.88;;;18.05;100.00
42433;BME280;28071;48.232;20.668;2023-06-22T02:58:16;99773.06;;;18.12;100.00
42433;BME280;28071;48.232;20.668;2023-06-22T03:03:16;99780.88;;;18.09;100.00
42433;BME280;28071;48.232;20.668;2023-06-22T03:08:17;99797.88;;;18.14;100.00
42433;BME280;28071;48.232;20.668;2023-06-22T03:13:17;99807.56;;;18.20;100.00
42433;BME280;28071;48.232;20.668;2023-06-22T03:18:17;99789.72;;;18.04;100.00
42433;BME280;28071;48.232;20.668;2023-06-22T03:23:18;99810.22;;;18.10;100.00
42433;BME280;28071;48.232;20.668;2023-06-22T03:28:18;99818.28;;;18.10;100.00
42433;BME280;28071;48.232;20.668;2023-06-22T03:33:19;99827.72;;;18.08;100.00
42433;BME280;28071;48.232;20.668;2023-06-22T03:38:19;99820.22;;;18.15;100.00
42433;BME280;28071;48.232;20.668;2023-06-22T03:43:20;99826.94;;;18.17;100.00
42433;BME280;28071;48.232;20.668;2023-06-22T03:48:20;99808.06;;;18.12;100.00
42433;BME280;28071;48.232;20.668;2023-06-22T03:53:20;99826.19;;;18.27;100.00
42433;BME280;28071;48.232;20.668;2023-06-22T03:58:21;99818.38;;;18.25;100.00
42433;BME280;28071;48.232;20.668;2023-06-22T04:03:22;99828.44;;;18.45;100.00
42433;BME280;28071;48.232;20.668;2023-06-22T04:08:22;99822.81;;;18.52;100.00
42433;BME280;28071;48.232;20.668;2023-06-22T04:13:22;99819.06;;;18.53;100.00
42433;BME280;28071;48.232;20.668;2023-06-22T04:18:23;99815.28;;;18.54;100.00
42433;BME280;28071;48.232;20.668;2023-06-22T04:23:23;99823.19;;;18.71;100.00
42433;BME280;28071;48.232;20.668;2023-06-22T04:28:24;99823.78;;;18.88;100.00
42433;BME280;28071;48.232;20.668;2023-06-22T04:33:24;99823.00;;;19.03;100.00
42433;BME280;28071;48.232;20.668;2023-06-22T04:38:25;99822.25;;;19.28;100.00
42433;BME280;28071;48.232;20.668;2023-06-22T04:43:25;99823.31;;;19.47;100.00
42433;BME280;28071;48.232;20.668;2023-06-22T04:48:25;99828.47;;;19.69;100.00
42433;BME280;28071;48.232;20.668;2023-06-22T04:53:32;99832.81;;;19.80;100.00
42433;BME280;28071;48.232;20.668;2023-06-22T04:58:33;99820.91;;;19.86;100.00
42433;BME280;28071;48.232;20.668;2023-06-22T05:03:33;99832.47;;;20.07;100.00
42433;BME280;28071;48.232;20.668;2023-06-22T05:08:34;99846.22;;;20.26;100.00
42433;BME280;28071;48.232;20.668;2023-06-22T05:13:35;99848.88;;;20.46;100.00
42433;BME280;28071;48.232;20.668;2023-06-22T05:18:35;99853.41;;;20.66;100.00
42433;BME280;28071;48.232;20.668;2023-06-22T05:23:36;99857.94;;;20.86;100.00
42433;BME280;28071;48.232;20.668;2023-06-22T05:28:37;99852.75;;;20.95;100.00
42433;BME280;28071;48.232;20.668;2023-06-22T05:33:37;99862.13;;;21.08;100.00
42433;BME280;28071;48.232;20.668;2023-06-22T05:38:38;99855.66;;;21.03;100.00
42433;BME280;28071;48.232;20.668;2023-06-22T05:43:39;99879.84;;;21.39;100.00
42433;BME280;28071;48.232;20.668;2023-06-22T05:48:39;99886.22;;;21.53;100.00
42433;BME280;28071;48.232;20.668;2023-06-22T05:53:39;99887.75;;;21.65;100.00
42433;BME280;28071;48.232;20.668;2023-06-22T05:58:40;99884.59;;;22.21;100.00
42433;BME280;28071;48.232;20.668;2023-06-22T06:03:40;99879.94;;;22.50;100.00
42433;BME280;28071;48.232;20.668;2023-06-22T06:08:41;99880.97;;;22.78;100.00
42433;BME280;28071;48.232;20.668;2023-06-22T06:13:42;99870.56;;;23.09;100.00
42433;BME280;28071;48.232;20.668;2023-06-22T06:18:42;99886.19;;;23.17;100.00
42433;BME280;28071;48.232;20.668;2023-06-22T06:23:43;99887.72;;;23.42;100.00
42433;BME280;28071;48.232;20.668;2023-06-22T06:28:43;99879.41;;;23.71;100.00
42433;BME280;28071;48.232;20.668;2023-06-22T06:33:44;99882.34;;;24.07;100.00
42433;BME280;28071;48.232;20.668;2023-06-22T06:38:45;99903.41;;;24.29;100.00
42433;BME280;28071;48.232;20.668;2023-06-22T06:43:47;99898.47;;;24.31;100.00
42433;BME280;28071;48.232;20.668;2023-06-22T06:48:47;99906.50;;;24.42;100.00
42433;BME280;28071;48.232;20.668;2023-06-22T06:53:48;99904.16;;;24.62;100.00
42433;BME280;28071;48.232;20.668;2023-06-22T06:58:50;99893.50;;;24.80;100.00
42433;BME280;28071;48.232;20.668;2023-06-22T07:03:51;99898.19;;;25.15;100.00
42433;BME280;28071;48.232;20.668;2023-06-22T07:08:51;99899.16;;;25.47;100.00
42433;BME280;28071;48.232;20.668;2023-06-22T07:13:52;99900.16;;;25.73;100.00
42433;BME280;28071;48.232;20.668;2023-06-22T07:18:52;99899.75;;;25.80;100.00
42433;BME280;28071;48.232;20.668;2023-06-22T07:23:52;99902.50;;;25.89;100.00
42433;BME280;28071;48.232;20.668;2023-06-22T07:28:54;99909.56;;;26.12;100.00
42433;BME280;28071;48.232;20.668;2023-06-22T07:33:54;99911.03;;;26.18;100.00
42433;BME280;28071;48.232;20.668;2023-06-22T07:38:55;99902.03;;;26.40;100.00
42433;BME280;28071;48.232;20.668;2023-06-22T07:43:55;99908.03;;;26.60;100.00
42433;BME280;28071;48.232;20.668;2023-06-22T07:48:56;99882.09;;;26.71;100.00
42433;BME280;28071;48.232;20.668;2023-06-22T07:53:57;99880.84;;;26.94;100.00
42433;BME280;28071;48.232;20.668;2023-06-22T07:58:57;99897.94;;;27.17;100.00
42433;BME280;28071;48.232;20.668;2023-06-22T08:03:59;99900.84;;;27.38;100.00
42433;BME280;28071;48.232;20.668;2023-06-22T08:08:59;99898.25;;;27.33;97.36
42433;BME280;28071;48.232;20.668;2023-06-22T08:14:00;99901.97;;;27.72;96.50
42433;BME280;28071;48.232;20.668;2023-06-22T08:19:00;99884.28;;;27.78;93.74
42433;BME280;28071;48.232;20.668;2023-06-22T08:24:01;99914.44;;;28.16;90.63
42433;BME280;28071;48.232;20.668;2023-06-22T08:29:03;99910.72;;;28.29;86.66
42433;BME280;28071;48.232;20.668;2023-06-22T08:34:03;99910.72;;;28.38;85.84
42433;BME280;28071;48.232;20.668;2023-06-22T08:39:04;99930.47;;;28.82;84.99
42433;BME280;28071;48.232;20.668;2023-06-22T08:44:04;99924.13;;;28.98;80.96
42433;BME280;28071;48.232;20.668;2023-06-22T08:49:05;99919.81;;;29.18;77.68
42433;BME280;28071;48.232;20.668;2023-06-22T08:54:06;99915.09;;;29.27;78.47
42433;BME280;28071;48.232;20.668;2023-06-22T08:59:06;99907.41;;;29.42;77.59
42433;BME280;28071;48.232;20.668;2023-06-22T09:04:07;99906.44;;;29.38;80.25
42433;BME280;28071;48.232;20.668;2023-06-22T09:09:09;99905.06;;;29.73;81.40
42433;BME280;28071;48.232;20.668;2023-06-22T09:14:11;99903.09;;;29.74;79.78
42433;BME280;28071;48.232;20.668;2023-06-22T09:19:11;99908.59;;;29.74;80.83
42433;BME280;28071;48.232;20.668;2023-06-22T09:24:12;99904.66;;;30.17;81.49
42433;BME280;28071;48.232;20.668;2023-06-22T09:29:12;99906.97;;;30.39;79.44
42433;BME280;28071;48.232;20.668;2023-06-22T09:34:13;99903.66;;;30.58;75.29
42433;BME280;28071;48.232;20.668;2023-06-22T09:39:13;99903.41;;;30.51;77.93
42433;BME280;28071;48.232;20.668;2023-06-22T09:44:14;99894.19;;;30.67;77.91
42433;BME280;28071;48.232;20.668;2023-06-22T09:49:14;99900.38;;;30.77;75.69
42433;BME280;28071;48.232;20.668;2023-06-22T09:54:15;99897.09;;;31.11;75.47
42433;BME280;28071;48.232;20.668;2023-06-22T09:59:15;99902.56;;;31.36;74.91
42433;BME280;28071;48.232;20.668;2023-06-22T10:04:15;99882.72;;;31.42;75.05
42433;BME280;28071;48.232;20.668;2023-06-22T10:09:16;99896.91;;;31.85;72.59
42433;BME280;28071;48.232;20.668;2023-06-22T10:14:16;99894.13;;;32.13;72.19
42433;BME280;28071;48.232;20.668;2023-06-22T10:19:17;99885.88;;;32.13;72.45
42433;BME280;28071;48.232;20.668;2023-06-22T10:24:17;99895.81;;;32.49;69.87
42433;BME280;28071;48.232;20.668;2023-06-22T10:29:18;99892.53;;;32.59;72.95
42433;BME280;28071;48.232;20.668;2023-06-22T10:34:19;99886.25;;;32.58;68.86
42433;BME280;28071;48.232;20.668;2023-06-22T10:39:19;99882.72;;;32.77;67.88
42433;BME280;28071;48.232;20.668;2023-06-22T10:44:19;99883.97;;;32.96;68.14
42433;BME280;28071;48.232;20.668;2023-06-22T10:49:20;99890.56;;;33.46;64.51
42433;BME280;28071;48.232;20.668;2023-06-22T10:54:21;99885.63;;;33.55;62.95
42433;BME280;28071;48.232;20.668;2023-06-22T10:59:21;99886.56;;;33.62;61.88
42433;BME280;28071;48.232;20.668;2023-06-22T11:04:24;99885.75;;;33.81;60.48
42433;BME280;28071;48.232;20.668;2023-06-22T11:09:24;99890.56;;;34.07;60.35
42433;BME280;28071;48.232;20.668;2023-06-22T11:14:25;99874.81;;;34.31;59.71
42433;BME280;28071;48.232;20.668;2023-06-22T11:19:26;99882.00;;;34.35;59.86
42433;BME280;28071;48.232;20.668;2023-06-22T11:24:26;99874.22;;;34.41;60.14
42433;BME280;28071;48.232;20.668;2023-06-22T11:29:27;99877.81;;;34.45;60.00
42433;BME280;28071;48.232;20.668;2023-06-22T11:34:27;99868.19;;;34.35;55.82
42433;BME280;28071;48.232;20.668;2023-06-22T11:39:28;99864.94;;;34.79;57.75
42433;BME280;28071;48.232;20.668;2023-06-22T11:44:28;99845.97;;;34.51;55.96
42433;BME280;28071;48.232;20.668;2023-06-22T11:49:30;99855.97;;;35.16;57.17
42433;BME280;28071;48.232;20.668;2023-06-22T11:54:30;99856.09;;;34.93;55.57
42433;BME280;28071;48.232;20.668;2023-06-22T11:59:31;99843.19;;;35.04;54.50
42433;BME280;28071;48.232;20.668;2023-06-22T12:04:31;99842.81;;;35.39;55.64
42433;BME280;28071;48.232;20.668;2023-06-22T12:09:32;99837.28;;;35.73;50.07
42433;BME280;28071;48.232;20.668;2023-06-22T12:14:32;99824.28;;;35.77;52.23
42433;BME280;28071;48.232;20.668;2023-06-22T12:19:32;99826.28;;;36.21;51.22
42433;BME280;28071;48.232;20.668;2023-06-22T12:24:33;99820.19;;;36.01;49.33
42433;BME280;28071;48.232;20.668;2023-06-22T12:29:33;99817.03;;;34.98;52.87
42433;BME280;28071;48.232;20.668;2023-06-22T12:34:34;99810.25;;;35.22;52.95
42433;BME280;28071;48.232;20.668;2023-06-22T12:39:34;99820.41;;;35.89;54.37
42433;BME280;28071;48.232;20.668;2023-06-22T12:44:35;99815.25;;;35.83;50.66
42433;BME280;28071;48.232;20.668;2023-06-22T12:49:36;99801.72;;;36.19;51.40
42433;BME280;28071;48.232;20.668;2023-06-22T12:54:36;99812.38;;;36.72;49.59
42433;BME280;28071;48.232;20.668;2023-06-22T12:59:37;99801.16;;;36.47;48.58
42433;BME280;28071;48.232;20.668;2023-06-22T13:04:37;99781.41;;;36.52;43.53
42433;BME280;28071;48.232;20.668;2023-06-22T13:09:38;99783.22;;;36.34;43.10
42433;BME280;28071;48.232;20.668;2023-06-22T13:14:38;99787.63;;;35.46;45.55
42433;BME280;28071;48.232;20.668;2023-06-22T13:19:38;99775.09;;;35.60;45.40
42433;BME280;28071;48.232;20.668;2023-06-22T13:24:39;99782.13;;;35.91;42.68
42433;BME280;28071;48.232;20.668;2023-06-22T13:29:39;99779.41;;;36.53;40.47
42433;BME280;28071;48.232;20.668;2023-06-22T13:34:40;99788.72;;;36.85;39.76
42433;BME280;28071;48.232;20.668;2023-06-22T13:39:41;99775.25;;;36.87;40.29
42433;BME280;28071;48.232;20.668;2023-06-22T13:44:41;99762.88;;;36.67;41.86
42433;BME280;28071;48.232;20.668;2023-06-22T13:49:42;99766.59;;;36.96;43.29
42433;BME280;28071;48.232;20.668;2023-06-22T13:54:42;99763.88;;;37.21;41.29
42433;BME280;28071;48.232;20.668;2023-06-22T13:59:43;99731.19;;;36.68;42.69
42433;BME280;28071;48.232;20.668;2023-06-22T14:04:43;99722.75;;;36.39;44.09
42433;BME280;28071;48.232;20.668;2023-06-22T14:09:44;99732.63;;;36.40;43.08
42433;BME280;28071;48.232;20.668;2023-06-22T14:14:44;99707.56;;;36.88;42.84
42433;BME280;28071;48.232;20.668;2023-06-22T14:19:45;99725.03;;;37.14;41.54
42433;BME280;28071;48.232;20.668;2023-06-22T14:24:46;99724.72;;;37.44;40.27
42433;BME280;28071;48.232;20.668;2023-06-22T14:29:46;99709.97;;;37.15;40.12
42433;BME280;28071;48.232;20.668;2023-06-22T14:34:46;99716.22;;;36.83;40.82
42433;BME280;28071;48.232;20.668;2023-06-22T14:39:47;99711.97;;;37.25;39.45
42433;BME280;28071;48.232;20.668;2023-06-22T14:44:47;99705.56;;;36.92;40.76
42433;BME280;28071;48.232;20.668;2023-06-22T14:49:48;99695.66;;;36.91;41.18
42433;BME280;28071;48.232;20.668;2023-06-22T14:54:49;99701.22;;;36.91;42.87
42433;BME280;28071;48.232;20.668;2023-06-22T14:59:52;99684.06;;;36.61;43.91
42433;BME280;28071;48.232;20.668;2023-06-22T15:04:53;99687.81;;;36.24;44.32
42433;BME280;28071;48.232;20.668;2023-06-22T15:09:54;99683.94;;;35.81;44.76
42433;BME280;28071;48.232;20.668;2023-06-22T15:14:54;99692.75;;;35.94;43.99
42433;BME280;28071;48.232;20.668;2023-06-22T15:19:55;99699.53;;;36.00;45.64
42433;BME280;28071;48.232;20.668;2023-06-22T15:24:55;99683.66;;;35.97;44.87
42433;BME280;28071;48.232;20.668;2023-06-22T15:29:58;99678.16;;;34.44;49.17
42433;BME280;28071;48.232;20.668;2023-06-22T15:34:59;99682.44;;;33.62;64.95
42433;BME280;28071;48.232;20.668;2023-06-22T15:39:59;99693.66;;;33.50;64.79
42433;BME280;28071;48.232;20.668;2023-06-22T15:44:59;99677.53;;;33.10;66.89
42433;BME280;28071;48.232;20.668;2023-06-22T15:50:00;99692.22;;;32.21;74.28
42433;BME280;28071;48.232;20.668;2023-06-22T15:55:00;99695.19;;;31.49;77.03
42433;BME280;28071;48.232;20.668;2023-06-22T16:00:01;99690.75;;;31.01;80.20
42433;BME280;28071;48.232;20.668;2023-06-22T16:05:02;99674.41;;;30.52;81.41
42433;BME280;28071;48.232;20.668;2023-06-22T16:10:04;99658.16;;;30.19;84.09
42433;BME280;28071;48.232;20.668;2023-06-22T16:15:06;99678.16;;;30.19;85.61
42433;BME280;28071;48.232;20.668;2023-06-22T16:20:07;99664.59;;;29.86;86.21
42433;BME280;28071;48.232;20.668;2023-06-22T16:25:08;99675.19;;;29.88;87.18
42433;BME280;28071;48.232;20.668;2023-06-22T16:30:09;99678.38;;;29.77;89.96
42433;BME280;28071;48.232;20.668;2023-06-22T16:35:09;99691.06;;;29.82;88.33
42433;BME280;28071;48.232;20.668;2023-06-22T16:40:10;99703.38;;;29.51;89.80
42433;BME280;28071;48.232;20.668;2023-06-22T16:45:13;99697.91;;;29.51;90.75
42433;BME280;28071;48.232;20.668;2023-06-22T16:50:15;99696.00;;;29.19;91.87
42433;BME280;28071;48.232;20.668;2023-06-22T16:55:16;99696.03;;;28.98;93.99
42433;BME280;28071;48.232;20.668;2023-06-22T17:00:17;99691.31;;;29.19;94.87
42433;BME280;28071;48.232;20.668;2023-06-22T17:05:18;99689.56;;;29.15;97.32
42433;BME280;28071;48.232;20.668;2023-06-22T17:10:20;99654.50;;;28.96;97.69
42433;BME280;28071;48.232;20.668;2023-06-22T17:15:22;99684.69;;;28.87;97.63
42433;BME280;28071;48.232;20.668;2023-06-22T17:20:22;99672.41;;;28.72;96.61
42433;BME280;28071;48.232;20.668;2023-06-22T17:25:24;99680.38;;;28.65;96.49
42433;BME280;28071;48.232;20.668;2023-06-22T17:30:27;99675.50;;;28.50;96.73
42433;BME280;28071;48.232;20.668;2023-06-22T17:35:30;99656.91;;;28.14;98.32
42433;BME280;28071;48.232;20.668;2023-06-22T17:40:30;99650.53;;;27.72;99.40
42433;BME280;28071;48.232;20.668;2023-06-22T17:45:31;99650.88;;;27.70;99.30
42433;BME280;28071;48.232;20.668;2023-06-22T17:50:31;99653.75;;;27.27;100.00
42433;BME280;28071;48.232;20.668;2023-06-22T17:55:33;99634.03;;;26.95;100.00
42433;BME280;28071;48.232;20.668;2023-06-22T18:00:33;99657.19;;;26.80;100.00
42433;BME280;28071;48.232;20.668;2023-06-22T18:05:36;99619.63;;;26.25;100.00
42433;BME280;28071;48.232;20.668;2023-06-22T18:10:38;99645.13;;;26.21;100.00
42433;BME280;28071;48.232;20.668;2023-06-22T18:15:39;99646.06;;;26.08;100.00
42433;BME280;28071;48.232;20.668;2023-06-22T18:20:39;99649.25;;;25.92;100.00
42433;BME280;28071;48.232;20.668;2023-06-22T18:25:42;99631.63;;;25.59;100.00
42433;BME280;28071;48.232;20.668;2023-06-22T18:30:45;99644.47;;;25.27;100.00
42433;BME280;28071;48.232;20.668;2023-06-22T18:35:49;99623.59;;;24.91;100.00
42433;BME280;28071;48.232;20.668;2023-06-22T18:40:50;99626.00;;;24.71;100.00
42433;BME280;28071;48.232;20.668;2023-06-22T18:45:53;99645.56;;;24.50;100.00
42433;BME280;28071;48.232;20.668;2023-06-22T18:51:10;99620.53;;;24.26;100.00
42433;BME280;28071;48.232;20.668;2023-06-22T18:56:13;99659.25;;;24.31;100.00
42433;BME280;28071;48.232;20.668;2023-06-22T19:01:21;99669.97;;;24.14;100.00
42433;BME280;28071;48.232;20.668;2023-06-22T19:12:20;99674.44;;;23.96;100.00
42433;BME280;28071;48.232;20.668;2023-06-22T19:17:21;99681.06;;;23.90;100.00
42433;BME280;28071;48.232;20.668;2023-06-22T19:22:53;99649.03;;;23.46;100.00
42433;BME280;28071;48.232;20.668;2023-06-22T19:27:54;99675.41;;;23.59;100.00
42433;BME280;28071;48.232;20.668;2023-06-22T19:32:56;99675.88;;;23.47;100.00
42433;BME280;28071;48.232;20.668;2023-06-22T19:37:57;99676.50;;;23.44;100.00
42433;BME280;28071;48.232;20.668;2023-06-22T19:42:58;99679.88;;;23.22;100.00
42433;BME280;28071;48.232;20.668;2023-06-22T19:47:58;99677.50;;;23.02;100.00
42433;BME280;28071;48.232;20.668;2023-06-22T19:52:59;99684.53;;;23.03;100.00
42433;BME280;28071;48.232;20.668;2023-06-22T19:57:59;99686.66;;;23.06;100.00
42433;BME280;28071;48.232;20.668;2023-06-22T20:03:00;99693.84;;;22.97;100.00
42433;BME280;28071;48.232;20.668;2023-06-22T20:08:02;99670.56;;;22.77;100.00
42433;BME280;28071;48.232;20.668;2023-06-22T20:13:18;99697.66;;;22.77;100.00
42433;BME280;28071;48.232;20.668;2023-06-22T20:18:21;99656.28;;;22.34;100.00
42433;BME280;28071;48.232;20.668;2023-06-22T20:23:22;99680.59;;;22.58;100.00
42433;BME280;28071;48.232;20.668;2023-06-22T20:28:24;99662.13;;;22.41;100.00
42433;BME280;28071;48.232;20.668;2023-06-22T20:33:25;99695.41;;;22.47;100.00
42433;BME280;28071;48.232;20.668;2023-06-22T20:38:27;99701.56;;;22.52;100.00
42433;BME280;28071;48.232;20.668;2023-06-22T20:43:28;99705.94;;;22.48;100.00
42433;BME280;28071;48.232;20.668;2023-06-22T20:48:28;99705.81;;;22.39;100.00
42433;BME280;28071;48.232;20.668;2023-06-22T20:53:29;99699.63;;;22.34;100.00
42433;BME280;28071;48.232;20.668;2023-06-22T20:58:29;99690.19;;;22.31;100.00
42433;BME280;28071;48.232;20.668;2023-06-22T21:03:30;99683.72;;;22.08;100.00
42433;BME280;28071;48.232;20.668;2023-06-22T21:08:30;99680.03;;;21.99;100.00
42433;BME280;28071;48.232;20.668;2023-06-22T21:13:31;99685.84;;;21.87;100.00
42433;BME280;28071;48.232;20.668;2023-06-22T21:18:34;99686.69;;;21.83;100.00
42433;BME280;28071;48.232;20.668;2023-06-22T21:23:37;99682.50;;;21.72;100.00
42433;BME280;28071;48.232;20.668;2023-06-22T21:28:38;99677.22;;;21.62;100.00
42433;BME280;28071;48.232;20.668;2023-06-22T21:33:38;99669.09;;;21.62;100.00
42433;BME280;28071;48.232;20.668;2023-06-22T21:38:39;99669.31;;;21.65;100.00
42433;BME280;28071;48.232;20.668;2023-06-22T21:43:39;99676.66;;;21.59;100.00
42433;BME280;28071;48.232;20.668;2023-06-22T21:48:40;99665.97;;;21.49;100.00
42433;BME280;28071;48.232;20.668;2023-06-22T21:53:40;99671.72;;;21.43;100.00
42433;BME280;28071;48.232;20.668;2023-06-22T21:58:40;99669.41;;;21.26;100.00
42433;BME280;28071;48.232;20.668;2023-06-22T22:03:41;99663.56;;;21.14;100.00
42433;BME280;28071;48.232;20.668;2023-06-22T22:08:43;99667.84;;;21.20;100.00
42433;BME280;28071;48.232;20.668;2023-06-22T22:13:43;99659.88;;;21.04;100.00
42433;BME280;28071;48.232;20.668;2023-06-22T22:18:44;99655.25;;;21.05;100.00
42433;BME280;28071;48.232;20.668;2023-06-22T22:23:46;99625.41;;;20.86;100.00
42433;BME280;28071;48.232;20.668;2023-06-22T22:28:47;99650.38;;;21.07;100.00
42433;BME280;28071;48.232;20.668;2023-06-22T22:33:48;99638.75;;;21.06;100.00
42433;BME280;28071;48.232;20.668;2023-06-22T22:44:45;99616.63;;;20.99;100.00
42433;BME280;28071;48.232;20.668;2023-06-22T22:49:45;99616.69;;;20.94;100.00
42433;BME280;28071;48.232;20.668;2023-06-22T22:54:47;99599.94;;;20.92;100.00
42433;BME280;28071;48.232;20.668;2023-06-22T22:59:47;99597.47;;;20.96;100.00
42433;BME280;28071;48.232;20.668;2023-06-22T23:04:55;99599.59;;;20.99;100.00
42433;BME280;28071;48.232;20.668;2023-06-22T23:09:56;99594.81;;;20.91;100.00
42433;BME280;28071;48.232;20.668;2023-06-22T23:14:56;99584.06;;;20.86;100.00
42433;BME280;28071;48.232;20.668;2023-06-22T23:19:57;99576.94;;;20.66;100.00
42433;BME280;28071;48.232;20.668;2023-06-22T23:24:57;99568.66;;;20.52;100.00
42433;BME280;28071;48.232;20.668;2023-06-22T23:29:57;99562.78;;;20.45;100.00
42433;BME280;28071;48.232;20.668;2023-06-22T23:34:58;99571.41;;;20.47;100.00
42433;BME280;28071;48.232;20.668;2023-06-22T23:39:59;99573.31;;;20.41;100.00
42433;BME280;28071;48.232;20.668;2023-06-22T23:44:59;99577.13;;;20.40;100.00
42433;BME280;28071;48.232;20.668;2023-06-22T23:50:00;99580.88;;;20.39;100.00
42433;BME280;28071;48.232;20.668;2023-06-22T23:55:00;99561.22;;;20.34;100.00
